createdAt,value
2019-01-23T00:00:45.167Z,-72
2019-01-23T00:01:45.052Z,-72
2019-01-23T00:02:45.167Z,-72
2019-01-23T00:03:45.080Z,-72
2019-01-23T00:04:45.164Z,-72
2019-01-23T00:05:45.056Z,-72
2019-01-23T00:06:45.171Z,-72
2019-01-23T00:07:45.056Z,-72
2019-01-23T00:08:45.193Z,-72
2019-01-23T00:09:45.059Z,-72
2019-01-23T00:10:45.170Z,-72
2019-01-23T00:11:45.062Z,-73
2019-01-23T00:12:45.179Z,-73
2019-01-23T00:13:45.087Z,-73
2019-01-23T00:14:45.177Z,-73
2019-01-23T00:15:45.061Z,-72
2019-01-23T00:16:45.177Z,-72
2019-01-23T00:17:45.064Z,-72
2019-01-23T00:18:45.204Z,-72
2019-01-23T00:19:45.065Z,-73
2019-01-23T00:20:45.181Z,-73
2019-01-23T00:21:45.067Z,-73
2019-01-23T00:22:45.209Z,-72
2019-01-23T00:23:45.093Z,-72
2019-01-23T00:24:45.187Z,-72
2019-01-23T00:25:45.069Z,-72
2019-01-23T00:26:45.184Z,-73
2019-01-23T00:27:45.072Z,-72
2019-01-23T00:28:45.209Z,-72
2019-01-23T00:29:45.073Z,-72
2019-01-23T00:30:45.191Z,-72
2019-01-23T00:31:45.076Z,-72
2019-01-23T00:32:45.190Z,-72
2019-01-23T00:33:45.322Z,-72
2019-01-23T00:34:45.193Z,-72
2019-01-23T00:35:45.076Z,-72
2019-01-23T00:36:45.190Z,-72
2019-01-23T00:37:45.079Z,-72
2019-01-23T00:38:45.191Z,-72
2019-01-23T00:39:45.106Z,-72
2019-01-23T00:40:45.204Z,-71
2019-01-23T00:41:45.084Z,-72
2019-01-23T00:42:45.197Z,-72
2019-01-23T00:43:45.082Z,-72
2019-01-23T00:44:45.227Z,-72
2019-01-23T00:45:45.086Z,-72
2019-01-23T00:46:45.198Z,-72
2019-01-23T00:47:45.089Z,-72
2019-01-23T00:48:45.200Z,-72
2019-01-23T00:49:45.532Z,-72
2019-01-23T00:50:45.203Z,-72
2019-01-23T00:51:45.090Z,-72
2019-01-23T00:52:45.207Z,-72
2019-01-23T00:53:45.093Z,-72
2019-01-23T00:54:45.230Z,-72
2019-01-23T00:55:45.094Z,-72
2019-01-23T00:56:45.209Z,-72
2019-01-23T00:57:45.093Z,-72
2019-01-23T00:58:49.468Z,-73
2019-01-23T00:59:45.121Z,-73
2019-01-23T01:00:45.213Z,-73
2019-01-23T01:01:45.099Z,-74
2019-01-23T01:02:45.215Z,-73
2019-01-23T01:03:45.103Z,-73
2019-01-23T01:04:45.238Z,-74
2019-01-23T01:05:45.098Z,-73
2019-01-23T01:06:45.214Z,-74
2019-01-23T01:07:45.102Z,-73
2019-01-23T01:08:45.212Z,-74
2019-01-23T01:09:45.126Z,-74
2019-01-23T01:10:45.222Z,-73
2019-01-23T01:11:45.106Z,-73
2019-01-23T01:12:45.215Z,-73
2019-01-23T01:13:45.106Z,-73
2019-01-23T01:14:45.245Z,-73
2019-01-23T01:15:45.106Z,-73
2019-01-23T01:16:45.230Z,-73
2019-01-23T01:17:45.108Z,-73
2019-01-23T01:18:45.231Z,-72
2019-01-23T01:19:45.135Z,-72
2019-01-23T01:20:45.223Z,-73
2019-01-23T01:21:45.118Z,-73
2019-01-23T01:22:45.223Z,-73
2019-01-23T01:23:45.115Z,-73
2019-01-23T01:24:45.261Z,-72
2019-01-23T01:25:45.115Z,-72
2019-01-23T01:26:45.231Z,-73
2019-01-23T01:27:45.116Z,-73
2019-01-23T01:28:45.236Z,-73
2019-01-23T01:29:45.144Z,-73
2019-01-23T01:30:45.252Z,-73
2019-01-23T01:31:45.119Z,-73
2019-01-23T01:32:45.237Z,-73
2019-01-23T01:33:45.154Z,-72
2019-01-23T01:34:45.263Z,-73
2019-01-23T01:35:45.124Z,-73
2019-01-23T01:36:45.241Z,-73
2019-01-23T01:37:45.128Z,-73
2019-01-23T01:38:45.241Z,-73
2019-01-23T01:39:45.127Z,-73
2019-01-23T01:40:45.268Z,-73
2019-01-23T01:41:45.129Z,-72
2019-01-23T01:42:45.246Z,-72
2019-01-23T01:43:45.129Z,-72
2019-01-23T01:44:45.249Z,-72
2019-01-23T01:45:45.155Z,-73
2019-01-23T01:46:45.250Z,-73
2019-01-23T01:47:45.133Z,-73
2019-01-23T01:48:45.249Z,-73
2019-01-23T01:49:45.136Z,-73
2019-01-23T01:50:45.281Z,-73
2019-01-23T01:51:45.137Z,-74
2019-01-23T01:52:45.254Z,-73
2019-01-23T01:53:45.138Z,-73
2019-01-23T01:54:45.252Z,-73
2019-01-23T01:55:45.164Z,-73
2019-01-23T01:56:45.255Z,-73
2019-01-23T01:57:45.144Z,-74
2019-01-23T01:58:45.257Z,-73
2019-01-23T01:59:45.141Z,-73
2019-01-23T02:00:45.296Z,-73
2019-01-23T02:01:45.144Z,-73
2019-01-23T02:02:45.270Z,-73
2019-01-23T02:03:45.147Z,-73
2019-01-23T02:04:45.267Z,-73
2019-01-23T02:05:45.172Z,-72
2019-01-23T02:06:45.263Z,-72
2019-01-23T02:07:45.148Z,-73
2019-01-23T02:08:45.262Z,-72
2019-01-23T02:09:45.575Z,-72
2019-01-23T02:10:45.290Z,-72
2019-01-23T02:11:45.164Z,-72
2019-01-23T02:12:45.265Z,-72
2019-01-23T02:13:45.157Z,-72
2019-01-23T02:14:45.267Z,-72
2019-01-23T02:15:45.178Z,-72
2019-01-23T02:16:45.269Z,-72
2019-01-23T02:17:45.158Z,-72
2019-01-23T02:18:45.287Z,-72
2019-01-23T02:19:45.160Z,-72
2019-01-23T02:20:45.298Z,-72
2019-01-23T02:21:45.159Z,-72
2019-01-23T02:22:45.273Z,-72
2019-01-23T02:23:45.162Z,-72
2019-01-23T02:24:45.276Z,-72
2019-01-23T02:25:45.187Z,-72
2019-01-23T02:26:45.279Z,-72
2019-01-23T02:27:45.162Z,-73
2019-01-23T02:28:45.280Z,-72
2019-01-23T02:29:45.166Z,-72
2019-01-23T02:30:45.304Z,-73
2019-01-23T02:31:45.166Z,-73
2019-01-23T02:32:45.290Z,-72
2019-01-23T02:33:45.167Z,-72
2019-01-23T02:34:45.288Z,-73
2019-01-23T02:35:45.202Z,-73
2019-01-23T02:36:45.290Z,-72
2019-01-23T02:37:45.171Z,-72
2019-01-23T02:38:45.286Z,-72
2019-01-23T02:39:45.172Z,-73
2019-01-23T02:40:45.318Z,-72
2019-01-23T02:41:45.173Z,-72
2019-01-23T02:42:45.288Z,-72
2019-01-23T02:43:45.175Z,-73
2019-01-23T02:44:45.291Z,-72
2019-01-23T02:45:45.210Z,-71
2019-01-23T02:46:45.294Z,-71
2019-01-23T02:47:45.179Z,-71
2019-01-23T02:48:45.292Z,-71
2019-01-23T02:49:45.179Z,-71
2019-01-23T02:50:45.321Z,-71
2019-01-23T02:51:45.180Z,-71
2019-01-23T02:52:45.294Z,-71
2019-01-23T02:53:45.181Z,-71
2019-01-23T02:54:45.300Z,-71
2019-01-23T02:55:45.209Z,-71
2019-01-23T02:56:45.304Z,-71
2019-01-23T02:57:45.185Z,-72
2019-01-23T02:58:45.304Z,-71
2019-01-23T02:59:45.186Z,-71
2019-01-23T03:00:45.327Z,-71
2019-01-23T03:01:45.188Z,-71
2019-01-23T03:02:45.316Z,-72
2019-01-23T03:03:45.192Z,-70
2019-01-23T03:04:45.307Z,-70
2019-01-23T03:05:45.217Z,-71
2019-01-23T03:06:45.306Z,-71
2019-01-23T03:07:45.194Z,-70
2019-01-23T03:08:45.325Z,-71
2019-01-23T03:09:45.196Z,-70
2019-01-23T03:10:45.340Z,-71
2019-01-23T03:11:45.195Z,-70
2019-01-23T03:12:45.317Z,-70
2019-01-23T03:13:45.199Z,-70
2019-01-23T03:14:45.312Z,-71
2019-01-23T03:15:45.223Z,-72
2019-01-23T03:16:45.317Z,-72
2019-01-23T03:17:45.199Z,-72
2019-01-23T03:18:45.321Z,-72
2019-01-23T03:19:45.207Z,-71
2019-01-23T03:20:45.350Z,-71
2019-01-23T03:21:45.203Z,-71
2019-01-23T03:22:45.323Z,-71
2019-01-23T03:23:45.206Z,-71
2019-01-23T03:24:45.322Z,-71
2019-01-23T03:25:45.228Z,-71
2019-01-23T03:26:45.323Z,-71
2019-01-23T03:27:45.206Z,-71
2019-01-23T03:28:45.331Z,-71
2019-01-23T03:29:45.209Z,-71
2019-01-23T03:30:45.354Z,-71
2019-01-23T03:31:45.211Z,-73
2019-01-23T03:32:45.353Z,-73
2019-01-23T03:33:45.212Z,-73
2019-01-23T03:34:45.328Z,-73
2019-01-23T03:35:45.254Z,-71
2019-01-23T03:36:45.328Z,-71
2019-01-23T03:37:45.218Z,-71
2019-01-23T03:38:45.330Z,-71
2019-01-23T03:39:45.217Z,-70
2019-01-23T03:40:45.363Z,-71
2019-01-23T03:41:45.241Z,-71
2019-01-23T03:42:45.340Z,-71
2019-01-23T03:43:45.220Z,-71
2019-01-23T03:44:45.338Z,-71
2019-01-23T03:45:45.221Z,-71
2019-01-23T03:46:45.361Z,-71
2019-01-23T03:47:45.219Z,-71
2019-01-23T03:48:45.339Z,-71
2019-01-23T03:49:45.223Z,-71
2019-01-23T03:50:45.337Z,-71
2019-01-23T03:51:45.249Z,-71
2019-01-23T03:52:45.347Z,-71
2019-01-23T03:53:45.226Z,-71
2019-01-23T03:54:45.351Z,-71
2019-01-23T03:55:45.227Z,-71
2019-01-23T03:56:45.372Z,-71
2019-01-23T03:57:45.230Z,-73
2019-01-23T03:58:45.349Z,-72
2019-01-23T03:59:45.232Z,-73
2019-01-23T04:00:45.345Z,-73
2019-01-23T04:01:45.259Z,-73
2019-01-23T04:02:45.347Z,-73
2019-01-23T04:03:45.235Z,-73
2019-01-23T04:04:45.354Z,-73
2019-01-23T04:05:45.239Z,-73
2019-01-23T04:06:45.379Z,-73
2019-01-23T04:07:45.237Z,-73
2019-01-23T04:08:45.356Z,-72
2019-01-23T04:09:45.249Z,-72
2019-01-23T04:10:45.359Z,-73
2019-01-23T04:11:45.263Z,-72
2019-01-23T04:12:45.359Z,-73
2019-01-23T04:13:45.243Z,-72
2019-01-23T04:14:45.364Z,-73
2019-01-23T04:15:45.250Z,-72
2019-01-23T04:16:45.358Z,-73
2019-01-23T04:17:45.270Z,-73
2019-01-23T04:18:45.382Z,-73
2019-01-23T04:19:45.248Z,-73
2019-01-23T04:20:45.361Z,-73
2019-01-23T04:21:45.246Z,-74
2019-01-23T04:22:45.386Z,-74
2019-01-23T04:23:45.247Z,-73
2019-01-23T04:24:45.366Z,-72
2019-01-23T04:25:45.251Z,-73
2019-01-23T04:26:45.369Z,-73
2019-01-23T04:27:45.277Z,-72
2019-01-23T04:28:45.367Z,-72
2019-01-23T04:29:45.253Z,-72
2019-01-23T04:30:45.370Z,-72
2019-01-23T04:31:45.257Z,-72
2019-01-23T04:32:45.395Z,-73
2019-01-23T04:33:45.257Z,-72
2019-01-23T04:34:45.376Z,-72
2019-01-23T04:35:45.258Z,-72
2019-01-23T04:36:45.379Z,-72
2019-01-23T04:37:45.290Z,-72
2019-01-23T04:38:45.383Z,-72
2019-01-23T04:39:45.260Z,-72
2019-01-23T04:40:45.387Z,-72
2019-01-23T04:41:45.262Z,-72
2019-01-23T04:42:45.399Z,-71
2019-01-23T04:43:45.280Z,-71
2019-01-23T04:44:45.380Z,-71
2019-01-23T04:45:45.265Z,-71
2019-01-23T04:46:45.380Z,-71
2019-01-23T04:47:45.345Z,-71
2019-01-23T04:48:45.387Z,-71
2019-01-23T04:49:45.268Z,-71
2019-01-23T04:50:45.390Z,-71
2019-01-23T04:51:45.270Z,-71
2019-01-23T04:52:45.412Z,-72
2019-01-23T04:53:45.271Z,-72
2019-01-23T04:54:45.387Z,-72
2019-01-23T04:55:45.272Z,-72
2019-01-23T04:56:45.391Z,-72
2019-01-23T04:57:45.327Z,-72
2019-01-23T04:58:45.388Z,-72
2019-01-23T04:59:46.863Z,-72
2019-01-23T05:00:45.397Z,-73
2019-01-23T05:01:45.314Z,-71
2019-01-23T05:02:45.405Z,-73
2019-01-23T05:03:45.301Z,-72
2019-01-23T05:04:45.404Z,-72
2019-01-23T05:05:45.279Z,-73
2019-01-23T05:06:45.397Z,-73
2019-01-23T05:07:45.281Z,-73
2019-01-23T05:08:45.423Z,-73
2019-01-23T05:09:45.284Z,-72
2019-01-23T05:10:45.399Z,-72
2019-01-23T05:11:45.283Z,-72
2019-01-23T05:12:45.405Z,-72
2019-01-23T05:13:45.310Z,-72
2019-01-23T05:14:45.413Z,-72
2019-01-23T05:15:45.289Z,-72
2019-01-23T05:16:45.422Z,-72
2019-01-23T05:17:45.289Z,-72
2019-01-23T05:18:45.435Z,-72
2019-01-23T05:19:45.291Z,-72
2019-01-23T05:20:45.410Z,-71
2019-01-23T05:21:45.290Z,-71
2019-01-23T05:22:45.415Z,-71
2019-01-23T05:23:45.318Z,-71
2019-01-23T05:24:45.410Z,-71
2019-01-23T05:25:45.295Z,-71
2019-01-23T05:26:45.414Z,-72
2019-01-23T05:27:45.296Z,-72
2019-01-23T05:28:45.436Z,-72
2019-01-23T05:29:45.299Z,-72
2019-01-23T05:30:45.411Z,-72
2019-01-23T05:31:45.301Z,-72
2019-01-23T05:32:45.419Z,-73
2019-01-23T05:33:45.325Z,-70
2019-01-23T05:34:45.417Z,-69
2019-01-23T05:35:45.303Z,-69
2019-01-23T05:36:45.420Z,-69
2019-01-23T05:37:45.302Z,-69
2019-01-23T05:38:45.459Z,-69
2019-01-23T05:39:45.306Z,-69
2019-01-23T05:40:45.423Z,-70
2019-01-23T05:41:45.308Z,-69
2019-01-23T05:42:45.422Z,-69
2019-01-23T05:43:45.309Z,-69
2019-01-23T05:44:45.456Z,-69
2019-01-23T05:45:45.310Z,-69
2019-01-23T05:46:45.432Z,-69
2019-01-23T05:47:45.311Z,-69
2019-01-23T05:48:45.432Z,-69
2019-01-23T05:49:45.340Z,-69
2019-01-23T05:50:45.435Z,-69
2019-01-23T05:51:45.315Z,-69
2019-01-23T05:52:45.438Z,-69
2019-01-23T05:53:45.316Z,-69
2019-01-23T05:54:45.458Z,-69
2019-01-23T05:55:45.324Z,-69
2019-01-23T05:56:45.434Z,-69
2019-01-23T05:57:45.317Z,-69
2019-01-23T05:58:45.436Z,-69
2019-01-23T05:59:45.343Z,-69
2019-01-23T06:00:45.436Z,-69
2019-01-23T06:01:45.327Z,-69
2019-01-23T06:02:45.435Z,-69
2019-01-23T06:03:45.323Z,-69
2019-01-23T06:04:45.464Z,-69
2019-01-23T06:05:45.326Z,-69
2019-01-23T06:06:45.444Z,-69
2019-01-23T06:07:45.325Z,-69
2019-01-23T06:08:45.440Z,-69
2019-01-23T06:09:45.349Z,-69
2019-01-23T06:10:45.447Z,-69
2019-01-23T06:11:45.334Z,-69
2019-01-23T06:12:45.444Z,-69
2019-01-23T06:13:45.333Z,-70
2019-01-23T06:14:45.471Z,-69
2019-01-23T06:15:45.331Z,-69
2019-01-23T06:16:45.447Z,-69
2019-01-23T06:17:45.334Z,-69
2019-01-23T06:18:45.452Z,-69
2019-01-23T06:19:45.357Z,-69
2019-01-23T06:20:45.455Z,-69
2019-01-23T06:21:45.336Z,-69
2019-01-23T06:22:45.453Z,-69
2019-01-23T06:23:45.339Z,-69
2019-01-23T06:24:45.474Z,-69
2019-01-23T06:25:45.339Z,-69
2019-01-23T06:26:45.459Z,-69
2019-01-23T06:27:45.341Z,-69
2019-01-23T06:28:45.456Z,-69
2019-01-23T06:29:45.364Z,-69
2019-01-23T06:30:45.461Z,-69
2019-01-23T06:31:45.349Z,-69
2019-01-23T06:32:45.485Z,-69
2019-01-23T06:33:45.345Z,-69
2019-01-23T06:34:45.483Z,-69
2019-01-23T06:35:45.350Z,-69
2019-01-23T06:36:45.466Z,-69
2019-01-23T06:37:45.349Z,-69
2019-01-23T06:38:45.467Z,-69
2019-01-23T06:39:45.374Z,-69
2019-01-23T06:40:45.464Z,-69
2019-01-23T06:41:45.348Z,-69
2019-01-23T06:42:45.472Z,-69
2019-01-23T06:43:45.355Z,-69
2019-01-23T06:44:45.492Z,-69
2019-01-23T06:45:45.353Z,-69
2019-01-23T06:46:45.468Z,-69
2019-01-23T06:47:45.359Z,-69
2019-01-23T06:48:45.469Z,-69
2019-01-23T06:49:45.385Z,-69
2019-01-23T06:50:45.477Z,-69
2019-01-23T06:51:45.359Z,-69
2019-01-23T06:52:45.473Z,-69
2019-01-23T06:53:45.362Z,-69
2019-01-23T06:54:45.517Z,-69
2019-01-23T06:55:45.361Z,-69
2019-01-23T06:56:45.477Z,-69
2019-01-23T06:57:45.362Z,-69
2019-01-23T06:58:45.487Z,-69
2019-01-23T06:59:45.365Z,-69
2019-01-23T07:00:45.505Z,-69
2019-01-23T07:01:45.366Z,-69
2019-01-23T07:02:45.480Z,-69
2019-01-23T07:03:45.368Z,-69
2019-01-23T07:04:45.484Z,-69
2019-01-23T07:05:45.392Z,-69
2019-01-23T07:06:45.484Z,-69
2019-01-23T07:07:45.369Z,-69
2019-01-23T07:08:45.496Z,-69
2019-01-23T07:09:45.369Z,-69
2019-01-23T07:10:45.512Z,-69
2019-01-23T07:11:45.372Z,-69
2019-01-23T07:12:45.491Z,-69
2019-01-23T07:13:45.379Z,-69
2019-01-23T07:14:45.491Z,-69
2019-01-23T07:15:45.401Z,-69
2019-01-23T07:16:45.489Z,-69
2019-01-23T07:17:45.377Z,-69
2019-01-23T07:18:46.217Z,-69
2019-01-23T07:19:45.380Z,-69
2019-01-23T07:20:45.517Z,-69
2019-01-23T07:21:45.378Z,-69
2019-01-23T07:22:45.495Z,-69
2019-01-23T07:23:45.383Z,-69
2019-01-23T07:24:45.495Z,-69
2019-01-23T07:25:45.406Z,-69
2019-01-23T07:26:45.506Z,-69
2019-01-23T07:27:45.383Z,-69
2019-01-23T07:28:49.521Z,-69
2019-01-23T07:29:45.386Z,-69
2019-01-23T07:30:45.530Z,-69
2019-01-23T07:31:45.387Z,-69
2019-01-23T07:32:45.502Z,-69
2019-01-23T07:33:45.387Z,-69
2019-01-23T07:34:45.500Z,-69
2019-01-23T07:35:45.420Z,-69
2019-01-23T07:36:45.510Z,-69
2019-01-23T07:37:45.390Z,-69
2019-01-23T07:38:45.508Z,-69
2019-01-23T07:39:45.393Z,-69
2019-01-23T07:40:45.533Z,-69
2019-01-23T07:41:45.393Z,-69
2019-01-23T07:42:45.515Z,-69
2019-01-23T07:43:45.396Z,-68
2019-01-23T07:44:45.515Z,-69
2019-01-23T07:45:45.438Z,-69
2019-01-23T07:46:45.514Z,-69
2019-01-23T07:47:45.399Z,-69
2019-01-23T07:48:45.518Z,-69
2019-01-23T07:49:45.400Z,-69
2019-01-23T07:50:45.517Z,-69
2019-01-23T07:51:45.461Z,-69
2019-01-23T07:52:45.519Z,-69
2019-01-23T07:53:45.404Z,-69
2019-01-23T07:54:45.518Z,-69
2019-01-23T07:55:45.402Z,-69
2019-01-23T07:56:45.545Z,-69
2019-01-23T07:57:45.407Z,-69
2019-01-23T07:58:45.525Z,-69
2019-01-23T07:59:45.407Z,-69
2019-01-23T08:00:45.531Z,-69
2019-01-23T08:01:45.434Z,-69
2019-01-23T08:02:45.533Z,-69
2019-01-23T08:03:45.411Z,-69
2019-01-23T08:04:45.529Z,-69
2019-01-23T08:05:45.411Z,-69
2019-01-23T08:06:45.552Z,-69
2019-01-23T08:07:45.414Z,-69
2019-01-23T08:08:45.529Z,-69
2019-01-23T08:09:45.415Z,-69
2019-01-23T08:10:45.532Z,-69
2019-01-23T08:11:45.439Z,-69
2019-01-23T08:12:45.535Z,-69
2019-01-23T08:13:45.441Z,-69
2019-01-23T08:14:45.540Z,-69
2019-01-23T08:15:45.421Z,-69
2019-01-23T08:16:45.566Z,-69
2019-01-23T08:17:45.423Z,-69
2019-01-23T08:18:45.539Z,-69
2019-01-23T08:19:45.422Z,-69
2019-01-23T08:20:45.542Z,-69
2019-01-23T08:21:45.458Z,-69
2019-01-23T08:22:45.542Z,-69
2019-01-23T08:23:45.427Z,-69
2019-01-23T08:24:45.585Z,-69
2019-01-23T08:25:45.435Z,-69
2019-01-23T08:26:45.577Z,-69
2019-01-23T08:27:45.427Z,-69
2019-01-23T08:28:45.544Z,-69
2019-01-23T08:29:45.431Z,-69
2019-01-23T08:30:45.548Z,-69
2019-01-23T08:31:45.457Z,-69
2019-01-23T08:32:45.548Z,-69
2019-01-23T08:33:45.431Z,-69
2019-01-23T08:34:45.544Z,-69
2019-01-23T08:35:45.435Z,-69
2019-01-23T08:36:45.593Z,-69
2019-01-23T08:37:45.437Z,-70
2019-01-23T08:38:45.559Z,-69
2019-01-23T08:39:45.436Z,-69
2019-01-23T08:40:45.563Z,-69
2019-01-23T08:41:45.438Z,-69
2019-01-23T08:42:45.578Z,-69
2019-01-23T08:43:45.441Z,-69
2019-01-23T08:44:45.557Z,-69
2019-01-23T08:45:45.440Z,-69
2019-01-23T08:46:45.555Z,-69
2019-01-23T08:47:45.468Z,-69
2019-01-23T08:48:45.570Z,-69
2019-01-23T08:49:45.631Z,-69
2019-01-23T08:50:45.565Z,-69
2019-01-23T08:51:45.448Z,-69
2019-01-23T08:52:45.585Z,-69
2019-01-23T08:53:45.447Z,-69
2019-01-23T08:54:45.570Z,-69
2019-01-23T08:55:45.451Z,-69
2019-01-23T08:56:45.573Z,-69
2019-01-23T08:57:45.475Z,-69
2019-01-23T08:58:45.583Z,-69
2019-01-23T08:59:45.451Z,-69
2019-01-23T09:00:46.435Z,-69
2019-01-23T09:01:45.454Z,-69
2019-01-23T09:02:45.605Z,-69
2019-01-23T09:03:45.454Z,-68
2019-01-23T09:04:45.569Z,-68
2019-01-23T09:05:45.455Z,-69
2019-01-23T09:06:45.576Z,-69
2019-01-23T09:07:45.482Z,-69
2019-01-23T09:08:45.572Z,-69
2019-01-23T09:09:45.478Z,-69
2019-01-23T09:10:45.577Z,-69
2019-01-23T09:11:45.462Z,-69
2019-01-23T09:12:45.598Z,-68
2019-01-23T09:13:45.462Z,-69
2019-01-23T09:14:45.578Z,-69
2019-01-23T09:15:45.462Z,-69
2019-01-23T09:16:45.579Z,-69
2019-01-23T09:17:45.487Z,-69
2019-01-23T09:18:45.581Z,-69
2019-01-23T09:19:45.466Z,-69
2019-01-23T09:20:45.587Z,-69
2019-01-23T09:21:45.469Z,-69
2019-01-23T09:22:45.608Z,-69
2019-01-23T09:23:45.468Z,-69
2019-01-23T09:24:45.588Z,-69
2019-01-23T09:25:49.633Z,-69
2019-01-23T09:26:45.590Z,-69
2019-01-23T09:27:45.497Z,-69
2019-01-23T09:28:45.589Z,-69
2019-01-23T09:29:45.475Z,-69
2019-01-23T09:30:52.399Z,-69
2019-01-23T09:31:45.474Z,-69
2019-01-23T09:32:45.617Z,-68
2019-01-23T09:33:45.478Z,-68
2019-01-23T09:34:45.594Z,-68
2019-01-23T09:35:45.476Z,-68
2019-01-23T09:36:45.596Z,-68
2019-01-23T09:37:45.502Z,-68
2019-01-23T09:38:45.601Z,-68
2019-01-23T09:39:45.481Z,-68
2019-01-23T09:40:45.599Z,-68
2019-01-23T09:41:45.479Z,-68
2019-01-23T09:42:45.619Z,-68
2019-01-23T09:43:45.482Z,-68
2019-01-23T09:44:45.601Z,-68
2019-01-23T09:45:45.484Z,-68
2019-01-23T09:46:45.603Z,-68
2019-01-23T09:47:45.510Z,-68
2019-01-23T09:48:45.605Z,-68
2019-01-23T09:49:45.489Z,-68
2019-01-23T09:50:45.603Z,-68
2019-01-23T09:51:45.487Z,-68
2019-01-23T09:52:45.646Z,-68
2019-01-23T09:53:45.492Z,-68
2019-01-23T09:54:45.610Z,-68
2019-01-23T09:55:45.690Z,-68
2019-01-23T09:56:45.771Z,-68
2019-01-23T09:57:45.493Z,-68
2019-01-23T09:58:45.633Z,-68
2019-01-23T09:59:45.494Z,-68
2019-01-23T10:00:45.615Z,-68
2019-01-23T10:01:45.497Z,-68
2019-01-23T10:02:45.613Z,-68
2019-01-23T10:03:45.523Z,-68
2019-01-23T10:04:45.617Z,-68
2019-01-23T10:05:45.736Z,-68
2019-01-23T10:06:45.618Z,-68
2019-01-23T10:07:45.500Z,-68
2019-01-23T10:08:45.644Z,-68
2019-01-23T10:09:45.538Z,-68
2019-01-23T10:10:45.623Z,-68
2019-01-23T10:11:45.504Z,-68
2019-01-23T10:12:45.623Z,-68
2019-01-23T10:13:45.556Z,-68
2019-01-23T10:14:45.621Z,-68
2019-01-23T10:15:45.508Z,-68
2019-01-23T10:16:45.624Z,-68
2019-01-23T10:17:45.508Z,-68
2019-01-23T10:18:45.657Z,-68
2019-01-23T10:19:45.508Z,-68
2019-01-23T10:20:45.630Z,-68
2019-01-23T10:21:45.511Z,-68
2019-01-23T10:22:45.630Z,-68
2019-01-23T10:23:45.539Z,-68
2019-01-23T10:24:45.635Z,-68
2019-01-23T10:25:45.514Z,-68
2019-01-23T10:26:45.640Z,-68
2019-01-23T10:27:45.517Z,-68
2019-01-23T10:28:45.691Z,-68
2019-01-23T10:29:45.520Z,-68
2019-01-23T10:30:45.635Z,-67
2019-01-23T10:31:45.520Z,-68
2019-01-23T10:32:45.637Z,-68
2019-01-23T10:33:45.549Z,-68
2019-01-23T10:34:45.637Z,-68
2019-01-23T10:35:45.522Z,-68
2019-01-23T10:36:45.639Z,-68
2019-01-23T10:37:45.523Z,-68
2019-01-23T10:38:45.653Z,-68
2019-01-23T10:39:45.547Z,-68
2019-01-23T10:40:45.649Z,-68
2019-01-23T10:41:45.527Z,-68
2019-01-23T10:42:45.643Z,-68
2019-01-23T10:43:45.528Z,-68
2019-01-23T10:44:45.670Z,-68
2019-01-23T10:45:45.529Z,-68
2019-01-23T10:46:45.645Z,-68
2019-01-23T10:47:45.528Z,-68
2019-01-23T10:48:45.651Z,-68
2019-01-23T10:49:45.557Z,-68
2019-01-23T10:50:45.649Z,-68
2019-01-23T10:51:45.532Z,-68
2019-01-23T10:52:45.649Z,-68
2019-01-23T10:53:45.534Z,-68
2019-01-23T10:54:45.674Z,-68
2019-01-23T10:55:45.535Z,-68
2019-01-23T10:56:45.651Z,-68
2019-01-23T10:57:45.541Z,-68
2019-01-23T10:58:45.656Z,-68
2019-01-23T10:59:45.564Z,-68
2019-01-23T11:00:45.657Z,-68
2019-01-23T11:01:45.539Z,-68
2019-01-23T11:02:45.655Z,-68
2019-01-23T11:03:45.540Z,-68
2019-01-23T11:04:45.685Z,-68
2019-01-23T11:05:45.544Z,-68
2019-01-23T11:06:45.673Z,-68
2019-01-23T11:07:45.546Z,-68
2019-01-23T11:08:45.662Z,-68
2019-01-23T11:09:45.573Z,-68
2019-01-23T11:10:45.662Z,-68
2019-01-23T11:11:45.548Z,-68
2019-01-23T11:12:45.662Z,-68
2019-01-23T11:13:45.551Z,-68
2019-01-23T11:14:45.689Z,-68
2019-01-23T11:15:45.559Z,-68
2019-01-23T11:16:45.669Z,-68
2019-01-23T11:17:45.555Z,-68
2019-01-23T11:18:45.974Z,-68
2019-01-23T11:19:45.580Z,-68
2019-01-23T11:20:45.671Z,-68
2019-01-23T11:21:45.554Z,-68
2019-01-23T11:22:45.673Z,-68
2019-01-23T11:23:45.557Z,-68
2019-01-23T11:24:45.697Z,-68
2019-01-23T11:25:45.558Z,-68
2019-01-23T11:26:45.682Z,-68
2019-01-23T11:27:45.561Z,-68
2019-01-23T11:28:45.676Z,-68
2019-01-23T11:29:45.597Z,-68
2019-01-23T11:30:45.680Z,-68
2019-01-23T11:31:45.563Z,-68
2019-01-23T11:32:45.679Z,-68
2019-01-23T11:33:45.588Z,-68
2019-01-23T11:34:45.707Z,-68
2019-01-23T11:35:45.565Z,-68
2019-01-23T11:36:45.684Z,-68
2019-01-23T11:37:45.567Z,-68
2019-01-23T11:38:45.684Z,-68
2019-01-23T11:39:45.646Z,-68
2019-01-23T11:40:45.685Z,-68
2019-01-23T11:41:45.571Z,-68
2019-01-23T11:42:45.685Z,-68
2019-01-23T11:43:45.572Z,-68
2019-01-23T11:44:45.724Z,-68
2019-01-23T11:45:45.572Z,-68
2019-01-23T11:46:45.709Z,-68
2019-01-23T11:47:45.578Z,-67
2019-01-23T11:48:45.696Z,-68
2019-01-23T11:49:45.600Z,-68
2019-01-23T11:50:45.693Z,-68
2019-01-23T11:51:45.587Z,-68
2019-01-23T11:52:45.707Z,-69
2019-01-23T11:53:45.584Z,-69
2019-01-23T11:54:45.736Z,-69
2019-01-23T11:55:45.585Z,-68
2019-01-23T11:56:45.724Z,-69
2019-01-23T11:57:45.582Z,-68
2019-01-23T11:58:45.700Z,-68
2019-01-23T11:59:45.627Z,-69
2019-01-23T12:00:45.698Z,-68
2019-01-23T12:01:45.589Z,-68
2019-01-23T12:02:45.701Z,-68
2019-01-23T12:03:45.587Z,-68
2019-01-23T12:04:45.705Z,-68
2019-01-23T12:05:45.610Z,-68
2019-01-23T12:06:45.704Z,-68
2019-01-23T12:07:45.589Z,-68
2019-01-23T12:08:45.708Z,-68
2019-01-23T12:09:45.590Z,-68
2019-01-23T12:10:45.733Z,-68
2019-01-23T12:11:45.592Z,-68
2019-01-23T12:12:45.706Z,-68
2019-01-23T12:13:45.596Z,-68
2019-01-23T12:14:45.713Z,-69
2019-01-23T12:15:45.618Z,-68
2019-01-23T12:16:45.714Z,-68
2019-01-23T12:17:45.596Z,-68
2019-01-23T12:18:45.717Z,-68
2019-01-23T12:19:45.598Z,-68
2019-01-23T12:20:45.738Z,-68
2019-01-23T12:21:45.600Z,-68
2019-01-23T12:22:45.730Z,-70
2019-01-23T12:23:45.606Z,-68
2019-01-23T12:24:45.726Z,-68
2019-01-23T12:25:45.626Z,-68
2019-01-23T12:26:45.724Z,-68
2019-01-23T12:27:45.607Z,-68
2019-01-23T12:28:45.723Z,-68
2019-01-23T12:29:45.607Z,-68
2019-01-23T12:30:45.745Z,-68
2019-01-23T12:31:45.607Z,-68
2019-01-23T12:32:45.724Z,-68
2019-01-23T12:33:45.630Z,-68
2019-01-23T12:34:45.729Z,-68
2019-01-23T12:35:45.636Z,-68
2019-01-23T12:36:45.726Z,-68
2019-01-23T12:37:45.612Z,-68
2019-01-23T12:38:45.732Z,-68
2019-01-23T12:39:45.614Z,-68
2019-01-23T12:40:45.765Z,-68
2019-01-23T12:41:45.617Z,-68
2019-01-23T12:42:45.737Z,-68
2019-01-23T12:43:45.615Z,-68
2019-01-23T12:44:45.735Z,-68
2019-01-23T12:45:45.644Z,-68
2019-01-23T12:46:45.736Z,-68
2019-01-23T12:47:45.618Z,-68
2019-01-23T12:48:45.735Z,-68
2019-01-23T12:49:45.623Z,-68
2019-01-23T12:50:46.612Z,-68
2019-01-23T12:51:45.622Z,-68
2019-01-23T12:52:45.754Z,-68
2019-01-23T12:53:45.624Z,-68
2019-01-23T12:54:45.744Z,-68
2019-01-23T12:55:45.628Z,-70
2019-01-23T12:56:45.767Z,-70
2019-01-23T12:57:45.625Z,-68
2019-01-23T12:58:46.331Z,-68
2019-01-23T12:59:45.630Z,-68
2019-01-23T13:00:45.748Z,-68
2019-01-23T13:01:46.986Z,-68
2019-01-23T13:02:45.745Z,-68
2019-01-23T13:03:45.632Z,-68
2019-01-23T13:04:45.747Z,-68
2019-01-23T13:05:45.632Z,-68
2019-01-23T13:06:45.776Z,-68
2019-01-23T13:07:45.635Z,-68
2019-01-23T13:08:45.758Z,-68
2019-01-23T13:09:45.637Z,-68
2019-01-23T13:10:46.243Z,-68
2019-01-23T13:11:45.661Z,-68
2019-01-23T13:12:45.755Z,-68
2019-01-23T13:13:45.637Z,-68
2019-01-23T13:14:45.757Z,-68
2019-01-23T13:15:45.642Z,-68
2019-01-23T13:16:45.784Z,-69
2019-01-23T13:17:45.645Z,-68
2019-01-23T13:18:45.758Z,-68
2019-01-23T13:19:45.643Z,-68
2019-01-23T13:20:45.760Z,-68
2019-01-23T13:21:45.671Z,-68
2019-01-23T13:22:45.767Z,-68
2019-01-23T13:23:45.646Z,-68
2019-01-23T13:24:45.765Z,-68
2019-01-23T13:25:45.646Z,-68
2019-01-23T13:26:45.793Z,-68
2019-01-23T13:27:45.651Z,-68
2019-01-23T13:28:45.767Z,-69
2019-01-23T13:29:45.656Z,-69
2019-01-23T13:30:45.769Z,-68
2019-01-23T13:31:49.136Z,-68
2019-01-23T13:32:45.770Z,-68
2019-01-23T13:33:45.653Z,-68
2019-01-23T13:34:45.772Z,-68
2019-01-23T13:35:45.656Z,-68
2019-01-23T13:36:45.797Z,-68
2019-01-23T13:37:45.656Z,-68
2019-01-23T13:38:45.778Z,-68
2019-01-23T13:39:45.657Z,-68
2019-01-23T13:40:45.776Z,-68
2019-01-23T13:41:45.684Z,-68
2019-01-23T13:42:45.778Z,-68
2019-01-23T13:43:45.660Z,-68
2019-01-23T13:44:45.779Z,-70
2019-01-23T13:45:45.663Z,-70
2019-01-23T13:46:45.836Z,-70